PVG77 BIKF-RJAA
Flight info
| Callsign | PVG77 |
|---|---|
| Flight time | N/A |
| Altitude | 30000 |
| Route | SORIR3A SORIR DCT JV/N0491F300 DCT YRB/N0493F320 DCT YEV DCT FAI/N0486F340 DCT BGQ DCT EHM DCT CHUUK DCT EXAMY DCT 48N170E/N0491F360 43N160E 38N150E/N0485F380 AVBET Y809 SUPOK |
| Aircraft | B77W/H-SDE1E2E3FGHIJ2J3J4J5M1RWXY/LB1D1 |
Departure
| Time | N/A |
|---|---|
| Airport | Keflavik International Airport (BIKF) |
Arrival
| Time | 2026-05-05 14:04 |
|---|---|
| Airport | Narita International Airport (RJAA) |
| Time | Latitude | Longitude | Altitude | Speed | Heading |
|---|---|---|---|---|---|
| 2026-05-05 13:20 | 35.99321 | 143.85084 | 34305 ft | 357 kts | 261° |
| 2026-05-05 13:20 | 35.99029 | 143.82144 | 34300 ft | 356 kts | 262° |
| 2026-05-05 13:21 | 35.98450 | 143.76343 | 34294 ft | 357 kts | 261° |
| 2026-05-05 13:21 | 35.97869 | 143.70548 | 34291 ft | 356 kts | 262° |
| 2026-05-05 13:22 | 35.97284 | 143.64740 | 34288 ft | 354 kts | 262° |
| 2026-05-05 13:22 | 35.96694 | 143.58917 | 34285 ft | 357 kts | 261° |
| 2026-05-05 13:23 | 35.96103 | 143.53108 | 34286 ft | 355 kts | 261° |
| 2026-05-05 13:23 | 35.95509 | 143.47304 | 34274 ft | 354 kts | 261° |
| 2026-05-05 13:24 | 35.94914 | 143.41511 | 34278 ft | 357 kts | 261° |
| 2026-05-05 13:24 | 35.94310 | 143.35664 | 34281 ft | 354 kts | 261° |
| 2026-05-05 13:25 | 35.93708 | 143.29871 | 34305 ft | 359 kts | 261° |
| 2026-05-05 13:25 | 35.93101 | 143.24036 | 34299 ft | 357 kts | 260° |
| 2026-05-05 13:26 | 35.92515 | 143.18218 | 34300 ft | 357 kts | 261° |
| 2026-05-05 13:26 | 35.91943 | 143.12383 | 34297 ft | 355 kts | 261° |
| 2026-05-05 13:27 | 35.91369 | 143.06583 | 34294 ft | 358 kts | 261° |
| 2026-05-05 13:27 | 35.90786 | 143.00745 | 34295 ft | 358 kts | 261° |
| 2026-05-05 13:28 | 35.90197 | 142.94873 | 34288 ft | 358 kts | 261° |
| 2026-05-05 13:28 | 35.89608 | 142.89033 | 34297 ft | 358 kts | 262° |
| 2026-05-05 13:29 | 35.89317 | 142.86145 | 34153 ft | 350 kts | 260° |
| 2026-05-05 13:29 | 35.89032 | 142.83331 | 33624 ft | 345 kts | 261° |
| 2026-05-05 13:29 | 35.88747 | 142.80525 | 33038 ft | 342 kts | 260° |
| 2026-05-05 13:29 | 35.88457 | 142.77693 | 32491 ft | 360 kts | 260° |
| 2026-05-05 13:30 | 35.88147 | 142.74695 | 31864 ft | 375 kts | 261° |
| 2026-05-05 13:30 | 35.87826 | 142.71593 | 31217 ft | 378 kts | 261° |
| 2026-05-05 13:30 | 35.87512 | 142.68529 | 30827 ft | 373 kts | 262° |
| 2026-05-05 13:30 | 35.87205 | 142.65530 | 30476 ft | 372 kts | 261° |
| 2026-05-05 13:31 | 35.86894 | 142.62499 | 30078 ft | 373 kts | 262° |
| 2026-05-05 13:31 | 35.86578 | 142.59431 | 29665 ft | 372 kts | 261° |
| 2026-05-05 13:31 | 35.86267 | 142.56426 | 29273 ft | 369 kts | 262° |
| 2026-05-05 13:31 | 35.85957 | 142.53439 | 28893 ft | 369 kts | 262° |
| 2026-05-05 13:32 | 35.85640 | 142.50388 | 28474 ft | 372 kts | 262° |
| 2026-05-05 13:32 | 35.85324 | 142.47371 | 28058 ft | 373 kts | 262° |
| 2026-05-05 13:32 | 35.85005 | 142.44324 | 27635 ft | 375 kts | 262° |
| 2026-05-05 13:32 | 35.84686 | 142.41286 | 27213 ft | 376 kts | 262° |
| 2026-05-05 13:33 | 35.84360 | 142.38193 | 26759 ft | 375 kts | 262° |
| 2026-05-05 13:33 | 35.84041 | 142.35162 | 26327 ft | 377 kts | 262° |
| 2026-05-05 13:33 | 35.83716 | 142.32094 | 25917 ft | 378 kts | 262° |
| 2026-05-05 13:33 | 35.83389 | 142.29007 | 25468 ft | 381 kts | 262° |
| 2026-05-05 13:34 | 35.83057 | 142.25884 | 24994 ft | 381 kts | 262° |
| 2026-05-05 13:34 | 35.82730 | 142.22819 | 24559 ft | 381 kts | 262° |
| 2026-05-05 13:34 | 35.82396 | 142.19690 | 24101 ft | 383 kts | 262° |
| 2026-05-05 13:34 | 35.82062 | 142.16571 | 23638 ft | 382 kts | 263° |
| 2026-05-05 13:35 | 35.81730 | 142.13480 | 23169 ft | 385 kts | 262° |
| 2026-05-05 13:35 | 35.81393 | 142.10345 | 22690 ft | 386 kts | 263° |
| 2026-05-05 13:35 | 35.81054 | 142.07201 | 22196 ft | 384 kts | 262° |
| 2026-05-05 13:35 | 35.80714 | 142.04068 | 21711 ft | 383 kts | 263° |
| 2026-05-05 13:36 | 35.80376 | 142.00943 | 21240 ft | 383 kts | 263° |
| 2026-05-05 13:36 | 35.80040 | 141.97858 | 20757 ft | 383 kts | 263° |
| 2026-05-05 13:36 | 35.79699 | 141.94730 | 20276 ft | 385 kts | 262° |
| 2026-05-05 13:36 | 35.79354 | 141.91571 | 19779 ft | 386 kts | 262° |
| 2026-05-05 13:37 | 35.79016 | 141.88454 | 19282 ft | 386 kts | 262° |
| 2026-05-05 13:37 | 35.78674 | 141.85303 | 18785 ft | 385 kts | 262° |
| 2026-05-05 13:37 | 35.78337 | 141.82199 | 18296 ft | 385 kts | 262° |
| 2026-05-05 13:37 | 35.77994 | 141.79053 | 17779 ft | 384 kts | 262° |
| 2026-05-05 13:38 | 35.77685 | 141.75952 | 17271 ft | 381 kts | 266° |
| 2026-05-05 13:38 | 35.77591 | 141.72833 | 16775 ft | 379 kts | 269° |
| 2026-05-05 13:38 | 35.77532 | 141.69728 | 16271 ft | 376 kts | 269° |
| 2026-05-05 13:38 | 35.77474 | 141.66684 | 15780 ft | 373 kts | 269° |
| 2026-05-05 13:39 | 35.77413 | 141.63625 | 15284 ft | 370 kts | 269° |
| 2026-05-05 13:39 | 35.77351 | 141.60597 | 14793 ft | 368 kts | 269° |
| 2026-05-05 13:39 | 35.77288 | 141.57570 | 14294 ft | 365 kts | 269° |
| 2026-05-05 13:39 | 35.77225 | 141.54588 | 13809 ft | 363 kts | 269° |
| 2026-05-05 13:40 | 35.77161 | 141.51631 | 13320 ft | 362 kts | 269° |
| 2026-05-05 13:40 | 35.77097 | 141.48675 | 12832 ft | 361 kts | 269° |
| 2026-05-05 13:40 | 35.77032 | 141.45731 | 12345 ft | 358 kts | 269° |
| 2026-05-05 13:40 | 35.76966 | 141.42792 | 11848 ft | 356 kts | 269° |
| 2026-05-05 13:41 | 35.76900 | 141.39891 | 11355 ft | 354 kts | 268° |
| 2026-05-05 13:41 | 35.76833 | 141.36995 | 11028 ft | 346 kts | 268° |
| 2026-05-05 13:41 | 35.76769 | 141.34213 | 10942 ft | 331 kts | 268° |
| 2026-05-05 13:41 | 35.76707 | 141.31621 | 10850 ft | 318 kts | 268° |
| 2026-05-05 13:42 | 35.76646 | 141.29050 | 10731 ft | 307 kts | 268° |
| 2026-05-05 13:42 | 35.76593 | 141.26823 | 10607 ft | 297 kts | 268° |
| 2026-05-05 13:42 | 35.76536 | 141.24438 | 10492 ft | 285 kts | 268° |
| 2026-05-05 13:42 | 35.76314 | 141.22153 | 10366 ft | 272 kts | 251° |
| 2026-05-05 13:43 | 35.75458 | 141.20268 | 10243 ft | 262 kts | 229° |
| 2026-05-05 13:43 | 35.74094 | 141.18916 | 9945 ft | 261 kts | 212° |
| 2026-05-05 13:43 | 35.72578 | 141.17871 | 9612 ft | 262 kts | 208° |
| 2026-05-05 13:43 | 35.71006 | 141.16872 | 9166 ft | 268 kts | 208° |
| 2026-05-05 13:44 | 35.69387 | 141.15865 | 8752 ft | 271 kts | 208° |
| 2026-05-05 13:44 | 35.67775 | 141.14841 | 8394 ft | 271 kts | 213° |
| 2026-05-05 13:44 | 35.66487 | 141.13342 | 8082 ft | 267 kts | 238° |
| 2026-05-05 13:44 | 35.65870 | 141.11354 | 8017 ft | 260 kts | 261° |
| 2026-05-05 13:45 | 35.65752 | 141.09181 | 8024 ft | 265 kts | 268° |
| 2026-05-05 13:45 | 35.65785 | 141.07024 | 8008 ft | 265 kts | 278° |
| 2026-05-05 13:45 | 35.66358 | 141.04942 | 8003 ft | 268 kts | 293° |
| 2026-05-05 13:45 | 35.67126 | 141.02959 | 8003 ft | 267 kts | 294° |
| 2026-05-05 13:46 | 35.67895 | 141.00998 | 8002 ft | 267 kts | 294° |
| 2026-05-05 13:46 | 35.68675 | 140.99010 | 8003 ft | 266 kts | 294° |
| 2026-05-05 13:46 | 35.69450 | 140.97032 | 8001 ft | 268 kts | 294° |
| 2026-05-05 13:46 | 35.70224 | 140.95058 | 8001 ft | 267 kts | 294° |
| 2026-05-05 13:47 | 35.70999 | 140.93079 | 8002 ft | 267 kts | 294° |
| 2026-05-05 13:47 | 35.71771 | 140.91107 | 8003 ft | 266 kts | 294° |
| 2026-05-05 13:47 | 35.72546 | 140.89123 | 8004 ft | 266 kts | 294° |
| 2026-05-05 13:47 | 35.73315 | 140.87158 | 8004 ft | 266 kts | 294° |
| 2026-05-05 13:48 | 35.74095 | 140.85161 | 8006 ft | 266 kts | 294° |
| 2026-05-05 13:48 | 35.74857 | 140.83209 | 8006 ft | 266 kts | 294° |
| 2026-05-05 13:48 | 35.75630 | 140.81230 | 8007 ft | 266 kts | 294° |
| 2026-05-05 13:48 | 35.76398 | 140.79260 | 8006 ft | 266 kts | 294° |
| 2026-05-05 13:49 | 35.77375 | 140.77409 | 7987 ft | 270 kts | 314° |
| 2026-05-05 13:49 | 35.78886 | 140.76195 | 7969 ft | 273 kts | 339° |
| 2026-05-05 13:49 | 35.80685 | 140.75870 | 7952 ft | 276 kts | 4° |
| 2026-05-05 13:49 | 35.82462 | 140.76533 | 7930 ft | 280 kts | 31° |
| 2026-05-05 13:50 | 35.83821 | 140.78087 | 7908 ft | 279 kts | 57° |
| 2026-05-05 13:50 | 35.84488 | 140.80191 | 7885 ft | 278 kts | 84° |
| 2026-05-05 13:50 | 35.84347 | 140.82469 | 7864 ft | 277 kts | 110° |
| 2026-05-05 13:50 | 35.83451 | 140.84410 | 7847 ft | 272 kts | 135° |
| 2026-05-05 13:51 | 35.81993 | 140.85693 | 7829 ft | 269 kts | 160° |
| 2026-05-05 13:51 | 35.80240 | 140.86130 | 7818 ft | 265 kts | 180° |
| 2026-05-05 13:51 | 35.78471 | 140.86151 | 7822 ft | 264 kts | 181° |
| 2026-05-05 13:51 | 35.76698 | 140.86144 | 7822 ft | 264 kts | 182° |
| 2026-05-05 13:52 | 35.74923 | 140.86134 | 7824 ft | 265 kts | 182° |
| 2026-05-05 13:52 | 35.73166 | 140.86127 | 7822 ft | 264 kts | 182° |
| 2026-05-05 13:52 | 35.71389 | 140.86118 | 7823 ft | 264 kts | 182° |
| 2026-05-05 13:52 | 35.69615 | 140.86108 | 7823 ft | 264 kts | 182° |
| 2026-05-05 13:53 | 35.67851 | 140.86099 | 7824 ft | 264 kts | 182° |
| 2026-05-05 13:53 | 35.66089 | 140.86090 | 7824 ft | 264 kts | 182° |
| 2026-05-05 13:53 | 35.64343 | 140.85823 | 7813 ft | 263 kts | 199° |
| 2026-05-05 13:53 | 35.62785 | 140.84845 | 7810 ft | 262 kts | 214° |
| 2026-05-05 13:54 | 35.61350 | 140.83606 | 7813 ft | 262 kts | 216° |
| 2026-05-05 13:54 | 35.59919 | 140.82335 | 7809 ft | 261 kts | 216° |
| 2026-05-05 13:54 | 35.58502 | 140.81079 | 7810 ft | 263 kts | 216° |
| 2026-05-05 13:54 | 35.57087 | 140.79828 | 7812 ft | 261 kts | 216° |
| 2026-05-05 13:55 | 35.55650 | 140.78558 | 7814 ft | 263 kts | 216° |
| 2026-05-05 13:55 | 35.54224 | 140.77301 | 7816 ft | 262 kts | 216° |
| 2026-05-05 13:55 | 35.52811 | 140.76036 | 7809 ft | 263 kts | 220° |
| 2026-05-05 13:55 | 35.51591 | 140.74478 | 7682 ft | 263 kts | 229° |
| 2026-05-05 13:56 | 35.50464 | 140.72810 | 7422 ft | 265 kts | 230° |
| 2026-05-05 13:56 | 35.49386 | 140.71109 | 7109 ft | 264 kts | 239° |
| 2026-05-05 13:56 | 35.48834 | 140.69067 | 6795 ft | 264 kts | 264° |
| 2026-05-05 13:56 | 35.49055 | 140.66940 | 6480 ft | 265 kts | 289° |
| 2026-05-05 13:57 | 35.49828 | 140.64984 | 6212 ft | 263 kts | 298° |
| 2026-05-05 13:57 | 35.50679 | 140.63148 | 6123 ft | 256 kts | 298° |
| 2026-05-05 13:57 | 35.51548 | 140.61291 | 6069 ft | 260 kts | 298° |
| 2026-05-05 13:57 | 35.52384 | 140.59502 | 5992 ft | 245 kts | 298° |
| 2026-05-05 13:58 | 35.53211 | 140.57877 | 5871 ft | 224 kts | 310° |
| 2026-05-05 13:58 | 35.54322 | 140.56735 | 5724 ft | 210 kts | 324° |
| 2026-05-05 13:58 | 35.55473 | 140.55858 | 5427 ft | 196 kts | 327° |
| 2026-05-05 13:58 | 35.56582 | 140.55054 | 5192 ft | 190 kts | 326° |
| 2026-05-05 13:59 | 35.58740 | 140.53410 | 4747 ft | 190 kts | 328° |
| 2026-05-05 13:59 | 35.59838 | 140.52624 | 4512 ft | 190 kts | 328° |
| 2026-05-05 14:00 | 35.62059 | 140.51056 | 4038 ft | 191 kts | 328° |
| 2026-05-05 14:00 | 35.63155 | 140.50276 | 3796 ft | 191 kts | 328° |
| 2026-05-05 14:00 | 35.64269 | 140.49480 | 3549 ft | 190 kts | 328° |
| 2026-05-05 14:00 | 35.65365 | 140.48695 | 3301 ft | 190 kts | 328° |
| 2026-05-05 14:01 | 35.66473 | 140.47902 | 3055 ft | 190 kts | 328° |
| 2026-05-05 14:01 | 35.67552 | 140.47128 | 2807 ft | 189 kts | 328° |
| 2026-05-05 14:01 | 35.68650 | 140.46341 | 2552 ft | 187 kts | 328° |
| 2026-05-05 14:01 | 35.69735 | 140.45563 | 2304 ft | 189 kts | 328° |
| 2026-05-05 14:02 | 35.70833 | 140.44775 | 2049 ft | 189 kts | 328° |
| 2026-05-05 14:02 | 35.71922 | 140.43993 | 1792 ft | 187 kts | 328° |
| 2026-05-05 14:02 | 35.72998 | 140.43219 | 1539 ft | 188 kts | 328° |
| 2026-05-05 14:02 | 35.74077 | 140.42444 | 1275 ft | 184 kts | 328° |
| 2026-05-05 14:03 | 35.75121 | 140.41679 | 1010 ft | 181 kts | 327° |
| 2026-05-05 14:03 | 35.76173 | 140.40869 | 854 ft | 181 kts | 327° |
| 2026-05-05 14:03 | 35.77197 | 140.40146 | 556 ft | 175 kts | 332° |
| 2026-05-05 14:03 | 35.78234 | 140.39438 | 312 ft | 170 kts | 330° |
| 2026-05-05 14:04 | 35.79176 | 140.38768 | 144 ft | 151 kts | 330° |
| 2026-05-05 14:04 | 35.79957 | 140.38203 | 147 ft | 119 kts | 331° |
| 2026-05-05 14:04 | 35.80370 | 140.37926 | 147 ft | 24 kts | 330° |
| 2026-05-05 14:04 | 35.80475 | 140.37839 | 147 ft | 14 kts | 294° |
| 2026-05-05 14:05 | 35.80463 | 140.37756 | 147 ft | 8 kts | 264° |
| 2026-05-05 14:05 | 35.80451 | 140.37706 | 147 ft | 4 kts | 225° |
| 2026-05-05 14:05 | 35.80426 | 140.37682 | 147 ft | 4 kts | 205° |
| 2026-05-05 14:05 | 35.80395 | 140.37676 | 147 ft | 5 kts | 182° |
| 2026-05-05 14:06 | 35.80360 | 140.37685 | 147 ft | 5 kts | 162° |
| 2026-05-05 14:06 | 35.80323 | 140.37698 | 147 ft | 5 kts | 163° |
| 2026-05-05 14:06 | 35.80287 | 140.37720 | 147 ft | 6 kts | 147° |
| 2026-05-05 14:06 | 35.80252 | 140.37746 | 147 ft | 6 kts | 149° |
| 2026-05-05 14:07 | 35.80211 | 140.37776 | 147 ft | 7 kts | 149° |
| 2026-05-05 14:07 | 35.80168 | 140.37808 | 147 ft | 7 kts | 150° |
| 2026-05-05 14:07 | 35.80125 | 140.37839 | 147 ft | 7 kts | 151° |
| 2026-05-05 14:07 | 35.80081 | 140.37871 | 147 ft | 7 kts | 149° |
| 2026-05-05 14:08 | 35.80036 | 140.37904 | 147 ft | 9 kts | 149° |
| 2026-05-05 14:08 | 35.79973 | 140.37950 | 147 ft | 12 kts | 150° |
| 2026-05-05 14:08 | 35.79895 | 140.38007 | 147 ft | 13 kts | 150° |
| 2026-05-05 14:08 | 35.79819 | 140.38058 | 146 ft | 12 kts | 151° |
| 2026-05-05 14:09 | 35.79743 | 140.38113 | 145 ft | 13 kts | 150° |
| 2026-05-05 14:09 | 35.79662 | 140.38170 | 143 ft | 14 kts | 152° |
| 2026-05-05 14:09 | 35.79583 | 140.38228 | 143 ft | 13 kts | 149° |
| 2026-05-05 14:09 | 35.79508 | 140.38284 | 143 ft | 12 kts | 150° |
| 2026-05-05 14:10 | 35.79434 | 140.38336 | 143 ft | 12 kts | 149° |
| 2026-05-05 14:10 | 35.79362 | 140.38391 | 142 ft | 13 kts | 148° |
| 2026-05-05 14:10 | 35.79287 | 140.38448 | 141 ft | 13 kts | 151° |
| 2026-05-05 14:10 | 35.79207 | 140.38504 | 140 ft | 14 kts | 151° |
| 2026-05-05 14:11 | 35.79122 | 140.38564 | 140 ft | 15 kts | 147° |
| 2026-05-05 14:11 | 35.79051 | 140.38655 | 140 ft | 16 kts | 126° |
| 2026-05-05 14:11 | 35.78980 | 140.38759 | 140 ft | 16 kts | 141° |
| 2026-05-05 14:11 | 35.78882 | 140.38826 | 140 ft | 17 kts | 158° |
| 2026-05-05 14:12 | 35.78779 | 140.38867 | 141 ft | 15 kts | 163° |
| 2026-05-05 14:12 | 35.78689 | 140.38899 | 143 ft | 13 kts | 164° |
| 2026-05-05 14:12 | 35.78572 | 140.38971 | 143 ft | 25 kts | 143° |
| 2026-05-05 14:12 | 35.78411 | 140.39111 | 143 ft | 31 kts | 158° |
| 2026-05-05 14:13 | 35.78219 | 140.39182 | 146 ft | 28 kts | 180° |
| 2026-05-05 14:13 | 35.78056 | 140.39122 | 149 ft | 23 kts | 179° |
| 2026-05-05 14:13 | 35.77938 | 140.39237 | 150 ft | 25 kts | 118° |
| 2026-05-05 14:13 | 35.77865 | 140.39430 | 149 ft | 25 kts | 126° |
| 2026-05-05 14:14 | 35.77730 | 140.39561 | 150 ft | 25 kts | 150° |
| 2026-05-05 14:14 | 35.77581 | 140.39668 | 150 ft | 25 kts | 146° |
| 2026-05-05 14:14 | 35.77424 | 140.39719 | 149 ft | 22 kts | 187° |
| 2026-05-05 14:14 | 35.77280 | 140.39761 | 148 ft | 23 kts | 152° |
| 2026-05-05 14:15 | 35.77142 | 140.39856 | 146 ft | 24 kts | 165° |
| 2026-05-05 14:15 | 35.76985 | 140.39825 | 143 ft | 24 kts | 199° |
| 2026-05-05 14:15 | 35.76825 | 140.39775 | 143 ft | 25 kts | 203° |
| 2026-05-05 14:15 | 35.76676 | 140.39668 | 140 ft | 26 kts | 213° |
| 2026-05-05 14:16 | 35.76512 | 140.39569 | 139 ft | 27 kts | 203° |
| 2026-05-05 14:16 | 35.76342 | 140.39479 | 141 ft | 27 kts | 205° |
| 2026-05-05 14:16 | 35.76179 | 140.39386 | 142 ft | 25 kts | 206° |
| 2026-05-05 14:16 | 35.76026 | 140.39299 | 141 ft | 24 kts | 206° |
| 2026-05-05 14:17 | 35.76008 | 140.39189 | 140 ft | 14 kts | 322° |
| 2026-05-05 14:17 | 35.76069 | 140.39111 | 141 ft | 12 kts | 303° |
| 2026-05-05 14:17 | 35.76099 | 140.39049 | 142 ft | 5 kts | 301° |
| 2026-05-05 14:17 | 35.76117 | 140.39033 | 142 ft | 3 kts | 338° |
| 2026-05-05 14:18 | 35.76132 | 140.39023 | 143 ft | 1 kts | 318° |
| 2026-05-05 14:18 | 35.76142 | 140.39003 | 143 ft | 5 kts | 293° |
| 2026-05-05 14:18 | 35.76154 | 140.38965 | 143 ft | 3 kts | 270° |
| 2026-05-05 14:18 | 35.76143 | 140.38953 | 143 ft | 4 kts | 194° |
| 2026-05-05 14:19 | 35.76133 | 140.38940 | 143 ft | 2 kts | 252° |
| 2026-05-05 14:19 | 35.76135 | 140.38921 | 143 ft | 1 kts | 308° |
| 2026-05-05 14:19 | 35.76144 | 140.38916 | 143 ft | 2 kts | 351° |
| 2026-05-05 14:19 | 35.76161 | 140.38911 | 143 ft | 5 kts | 345° |
| 2026-05-05 14:20 | 35.76191 | 140.38896 | 144 ft | 0 kts | 332° |